sensor_id;sensor_type;location;lat;lon;timestamp;P1;durP1;ratioP1;P2;durP2;ratioP2
59486;SDS011;45298;54.918;73.504;2022-12-07T00:01:49;55.97;;;18.10;;
59486;SDS011;45298;54.918;73.504;2022-12-07T00:04:18;64.57;;;19.77;;
59486;SDS011;45298;54.918;73.504;2022-12-07T00:06:50;57.05;;;18.25;;
59486;SDS011;45298;54.918;73.504;2022-12-07T00:09:20;61.57;;;17.73;;
59486;SDS011;45298;54.918;73.504;2022-12-07T00:11:50;68.53;;;19.92;;
59486;SDS011;45298;54.918;73.504;2022-12-07T00:14:20;58.63;;;18.52;;
59486;SDS011;45298;54.918;73.504;2022-12-07T00:16:50;62.88;;;18.42;;
59486;SDS011;45298;54.918;73.504;2022-12-07T00:19:20;57.20;;;18.40;;
59486;SDS011;45298;54.918;73.504;2022-12-07T00:21:48;52.58;;;17.48;;
59486;SDS011;45298;54.918;73.504;2022-12-07T00:24:18;67.53;;;19.73;;
59486;SDS011;45298;54.918;73.504;2022-12-07T00:26:47;56.60;;;18.45;;
59486;SDS011;45298;54.918;73.504;2022-12-07T00:29:20;56.00;;;19.23;;
59486;SDS011;45298;54.918;73.504;2022-12-07T00:31:52;65.35;;;19.50;;
59486;SDS011;45298;54.918;73.504;2022-12-07T00:34:21;57.42;;;19.02;;
59486;SDS011;45298;54.918;73.504;2022-12-07T00:36:50;60.78;;;19.70;;
59486;SDS011;45298;54.918;73.504;2022-12-07T00:39:20;56.08;;;18.65;;
59486;SDS011;45298;54.918;73.504;2022-12-07T00:41:49;72.72;;;18.85;;
59486;SDS011;45298;54.918;73.504;2022-12-07T00:44:18;60.75;;;19.33;;
59486;SDS011;45298;54.918;73.504;2022-12-07T00:46:47;69.90;;;20.58;;
59486;SDS011;45298;54.918;73.504;2022-12-07T00:49:16;67.22;;;20.15;;
59486;SDS011;45298;54.918;73.504;2022-12-07T00:51:45;66.65;;;21.35;;
59486;SDS011;45298;54.918;73.504;2022-12-07T00:54:17;77.90;;;23.27;;
59486;SDS011;45298;54.918;73.504;2022-12-07T00:56:46;73.38;;;20.83;;
59486;SDS011;45298;54.918;73.504;2022-12-07T00:59:14;59.40;;;21.02;;
59486;SDS011;45298;54.918;73.504;2022-12-07T01:01:43;63.83;;;19.92;;
59486;SDS011;45298;54.918;73.504;2022-12-07T01:04:12;68.75;;;20.10;;
59486;SDS011;45298;54.918;73.504;2022-12-07T01:06:41;67.05;;;20.75;;
59486;SDS011;45298;54.918;73.504;2022-12-07T01:09:10;70.50;;;21.85;;
59486;SDS011;45298;54.918;73.504;2022-12-07T01:11:39;65.47;;;21.50;;
59486;SDS011;45298;54.918;73.504;2022-12-07T01:14:08;77.18;;;23.90;;
59486;SDS011;45298;54.918;73.504;2022-12-07T01:16:38;80.70;;;23.20;;
59486;SDS011;45298;54.918;73.504;2022-12-07T01:19:08;80.20;;;23.45;;
59486;SDS011;45298;54.918;73.504;2022-12-07T01:21:37;79.95;;;25.17;;
59486;SDS011;45298;54.918;73.504;2022-12-07T01:24:07;90.32;;;25.35;;
59486;SDS011;45298;54.918;73.504;2022-12-07T01:26:38;90.70;;;24.52;;
59486;SDS011;45298;54.918;73.504;2022-12-07T01:29:07;84.97;;;25.30;;
59486;SDS011;45298;54.918;73.504;2022-12-07T01:31:36;90.45;;;25.02;;
59486;SDS011;45298;54.918;73.504;2022-12-07T01:34:05;87.15;;;25.58;;
59486;SDS011;45298;54.918;73.504;2022-12-07T01:36:35;80.70;;;24.95;;
59486;SDS011;45298;54.918;73.504;2022-12-07T01:39:06;78.65;;;23.80;;
59486;SDS011;45298;54.918;73.504;2022-12-07T01:41:37;78.28;;;24.27;;
59486;SDS011;45298;54.918;73.504;2022-12-07T01:44:23;73.90;;;21.85;;
59486;SDS011;45298;54.918;73.504;2022-12-07T01:46:59;73.45;;;22.48;;
59486;SDS011;45298;54.918;73.504;2022-12-07T01:52:18;76.25;;;22.77;;
59486;SDS011;45298;54.918;73.504;2022-12-07T01:54:54;77.10;;;22.23;;
59486;SDS011;45298;54.918;73.504;2022-12-07T01:57:28;80.50;;;24.10;;
59486;SDS011;45298;54.918;73.504;2022-12-07T01:59:59;92.03;;;26.40;;
59486;SDS011;45298;54.918;73.504;2022-12-07T02:03:01;81.63;;;25.50;;
59486;SDS011;45298;54.918;73.504;2022-12-07T02:05:27;83.35;;;24.92;;
59486;SDS011;45298;54.918;73.504;2022-12-07T02:07:56;94.40;;;25.15;;
59486;SDS011;45298;54.918;73.504;2022-12-07T02:10:28;74.50;;;24.00;;
59486;SDS011;45298;54.918;73.504;2022-12-07T02:12:59;64.50;;;21.13;;
59486;SDS011;45298;54.918;73.504;2022-12-07T02:19:06;76.93;;;22.13;;
59486;SDS011;45298;54.918;73.504;2022-12-07T02:21:40;77.72;;;23.02;;
59486;SDS011;45298;54.918;73.504;2022-12-07T02:24:30;72.68;;;21.48;;
59486;SDS011;45298;54.918;73.504;2022-12-07T02:30:26;77.20;;;22.80;;
59486;SDS011;45298;54.918;73.504;2022-12-07T02:41:39;68.68;;;18.40;;
59486;SDS011;45298;54.918;73.504;2022-12-07T02:44:14;50.35;;;17.05;;
59486;SDS011;45298;54.918;73.504;2022-12-07T02:46:49;49.47;;;16.23;;
59486;SDS011;45298;54.918;73.504;2022-12-07T02:49:22;54.40;;;17.58;;
59486;SDS011;45298;54.918;73.504;2022-12-07T02:51:53;56.47;;;18.30;;
59486;SDS011;45298;54.918;73.504;2022-12-07T02:54:22;46.88;;;15.05;;
59486;SDS011;45298;54.918;73.504;2022-12-07T03:02:23;58.90;;;18.90;;
59486;SDS011;45298;54.918;73.504;2022-12-07T03:08:24;122.50;;;31.67;;
59486;SDS011;45298;54.918;73.504;2022-12-07T03:16:02;97.90;;;26.98;;
59486;SDS011;45298;54.918;73.504;2022-12-07T03:18:41;98.07;;;26.65;;
59486;SDS011;45298;54.918;73.504;2022-12-07T03:21:17;102.72;;;27.08;;
59486;SDS011;45298;54.918;73.504;2022-12-07T03:23:49;115.13;;;30.90;;
59486;SDS011;45298;54.918;73.504;2022-12-07T03:26:25;128.13;;;35.03;;
59486;SDS011;45298;54.918;73.504;2022-12-07T03:29:05;143.48;;;35.17;;
59486;SDS011;45298;54.918;73.504;2022-12-07T03:31:47;133.98;;;35.63;;
59486;SDS011;45298;54.918;73.504;2022-12-07T03:34:31;141.68;;;39.58;;
59486;SDS011;45298;54.918;73.504;2022-12-07T03:37:15;143.23;;;39.60;;
59486;SDS011;45298;54.918;73.504;2022-12-07T03:39:56;152.85;;;39.80;;
59486;SDS011;45298;54.918;73.504;2022-12-07T03:42:39;161.32;;;41.75;;
59486;SDS011;45298;54.918;73.504;2022-12-07T03:45:08;168.20;;;43.15;;
59486;SDS011;45298;54.918;73.504;2022-12-07T03:47:59;161.52;;;42.75;;
59486;SDS011;45298;54.918;73.504;2022-12-07T03:53:52;142.23;;;35.42;;
59486;SDS011;45298;54.918;73.504;2022-12-07T03:56:28;159.82;;;40.47;;
59486;SDS011;45298;54.918;73.504;2022-12-07T03:58:57;159.00;;;42.65;;
59486;SDS011;45298;54.918;73.504;2022-12-07T04:01:26;153.23;;;40.08;;
59486;SDS011;45298;54.918;73.504;2022-12-07T04:03:55;136.55;;;37.83;;
59486;SDS011;45298;54.918;73.504;2022-12-07T04:06:27;132.35;;;38.08;;
59486;SDS011;45298;54.918;73.504;2022-12-07T04:08:56;158.73;;;38.67;;
59486;SDS011;45298;54.918;73.504;2022-12-07T04:11:25;151.27;;;39.47;;
59486;SDS011;45298;54.918;73.504;2022-12-07T04:13:54;152.93;;;41.53;;
59486;SDS011;45298;54.918;73.504;2022-12-07T04:16:41;161.90;;;37.75;;
59486;SDS011;45298;54.918;73.504;2022-12-07T04:19:13;129.32;;;37.85;;
59486;SDS011;45298;54.918;73.504;2022-12-07T04:21:43;140.15;;;38.40;;
59486;SDS011;45298;54.918;73.504;2022-12-07T04:24:12;118.07;;;33.05;;
59486;SDS011;45298;54.918;73.504;2022-12-07T04:26:42;141.43;;;38.05;;
59486;SDS011;45298;54.918;73.504;2022-12-07T04:29:11;140.93;;;36.15;;
59486;SDS011;45298;54.918;73.504;2022-12-07T04:31:40;128.13;;;35.42;;
59486;SDS011;45298;54.918;73.504;2022-12-07T04:34:09;126.32;;;35.47;;
59486;SDS011;45298;54.918;73.504;2022-12-07T04:36:39;81.93;;;25.48;;
59486;SDS011;45298;54.918;73.504;2022-12-07T04:39:13;145.23;;;36.75;;
59486;SDS011;45298;54.918;73.504;2022-12-07T04:41:56;123.78;;;35.28;;
59486;SDS011;45298;54.918;73.504;2022-12-07T04:44:25;129.43;;;37.03;;
59486;SDS011;45298;54.918;73.504;2022-12-07T04:46:55;126.05;;;34.00;;
59486;SDS011;45298;54.918;73.504;2022-12-07T04:49:24;97.15;;;30.25;;
59486;SDS011;45298;54.918;73.504;2022-12-07T04:51:54;115.15;;;31.45;;
59486;SDS011;45298;54.918;73.504;2022-12-07T04:54:22;115.97;;;32.45;;
59486;SDS011;45298;54.918;73.504;2022-12-07T04:56:51;104.75;;;31.27;;
59486;SDS011;45298;54.918;73.504;2022-12-07T04:59:20;113.95;;;29.95;;
59486;SDS011;45298;54.918;73.504;2022-12-07T05:01:49;103.45;;;27.15;;
59486;SDS011;45298;54.918;73.504;2022-12-07T05:04:18;89.05;;;25.42;;
59486;SDS011;45298;54.918;73.504;2022-12-07T05:06:46;85.85;;;27.42;;
59486;SDS011;45298;54.918;73.504;2022-12-07T05:09:15;90.60;;;25.60;;
59486;SDS011;45298;54.918;73.504;2022-12-07T05:11:44;90.50;;;25.75;;
59486;SDS011;45298;54.918;73.504;2022-12-07T05:14:17;71.22;;;22.13;;
59486;SDS011;45298;54.918;73.504;2022-12-07T05:16:48;88.43;;;24.92;;
59486;SDS011;45298;54.918;73.504;2022-12-07T05:19:18;74.50;;;24.23;;
59486;SDS011;45298;54.918;73.504;2022-12-07T05:21:47;62.38;;;20.63;;
59486;SDS011;45298;54.918;73.504;2022-12-07T05:24:17;62.70;;;16.83;;
59486;SDS011;45298;54.918;73.504;2022-12-07T05:26:46;62.25;;;19.17;;
59486;SDS011;45298;54.918;73.504;2022-12-07T05:29:17;61.72;;;18.77;;
59486;SDS011;45298;54.918;73.504;2022-12-07T05:31:46;53.50;;;18.10;;
59486;SDS011;45298;54.918;73.504;2022-12-07T05:34:15;54.47;;;17.00;;
59486;SDS011;45298;54.918;73.504;2022-12-07T05:36:44;61.70;;;19.48;;
59486;SDS011;45298;54.918;73.504;2022-12-07T05:39:13;51.53;;;15.38;;
59486;SDS011;45298;54.918;73.504;2022-12-07T05:41:42;40.88;;;13.45;;
59486;SDS011;45298;54.918;73.504;2022-12-07T05:44:30;56.90;;;14.95;;
59486;SDS011;45298;54.918;73.504;2022-12-07T05:46:59;45.47;;;14.93;;
59486;SDS011;45298;54.918;73.504;2022-12-07T05:49:29;49.05;;;14.57;;
59486;SDS011;45298;54.918;73.504;2022-12-07T05:51:58;49.40;;;14.55;;
59486;SDS011;45298;54.918;73.504;2022-12-07T05:54:27;38.05;;;11.65;;
59486;SDS011;45298;54.918;73.504;2022-12-07T05:56:56;41.78;;;13.88;;
59486;SDS011;45298;54.918;73.504;2022-12-07T05:59:25;42.55;;;14.23;;
59486;SDS011;45298;54.918;73.504;2022-12-07T06:01:56;39.25;;;13.75;;
59486;SDS011;45298;54.918;73.504;2022-12-07T06:04:29;46.55;;;13.65;;
59486;SDS011;45298;54.918;73.504;2022-12-07T06:07:00;49.97;;;12.95;;
59486;SDS011;45298;54.918;73.504;2022-12-07T06:09:29;45.97;;;14.05;;
59486;SDS011;45298;54.918;73.504;2022-12-07T06:11:58;54.35;;;15.32;;
59486;SDS011;45298;54.918;73.504;2022-12-07T06:14:46;49.28;;;15.95;;
59486;SDS011;45298;54.918;73.504;2022-12-07T06:17:15;40.33;;;13.00;;
59486;SDS011;45298;54.918;73.504;2022-12-07T06:19:44;43.90;;;12.02;;
59486;SDS011;45298;54.918;73.504;2022-12-07T06:22:13;40.55;;;12.75;;
59486;SDS011;45298;54.918;73.504;2022-12-07T06:24:44;42.40;;;13.13;;
59486;SDS011;45298;54.918;73.504;2022-12-07T06:27:13;40.05;;;13.02;;
59486;SDS011;45298;54.918;73.504;2022-12-07T06:29:42;43.92;;;14.60;;
59486;SDS011;45298;54.918;73.504;2022-12-07T06:32:13;48.88;;;15.48;;
59486;SDS011;45298;54.918;73.504;2022-12-07T06:34:42;50.50;;;14.35;;
59486;SDS011;45298;54.918;73.504;2022-12-07T06:37:11;54.88;;;16.33;;
59486;SDS011;45298;54.918;73.504;2022-12-07T06:39:40;64.70;;;17.58;;
59486;SDS011;45298;54.918;73.504;2022-12-07T06:42:08;46.33;;;14.55;;
59486;SDS011;45298;54.918;73.504;2022-12-07T06:44:38;48.85;;;14.90;;
59486;SDS011;45298;54.918;73.504;2022-12-07T06:47:07;44.08;;;14.07;;
59486;SDS011;45298;54.918;73.504;2022-12-07T06:49:58;55.33;;;13.40;;
59486;SDS011;45298;54.918;73.504;2022-12-07T06:52:28;47.28;;;13.75;;
59486;SDS011;45298;54.918;73.504;2022-12-07T06:54:59;45.00;;;12.88;;
59486;SDS011;45298;54.918;73.504;2022-12-07T06:57:30;39.60;;;11.25;;
59486;SDS011;45298;54.918;73.504;2022-12-07T06:59:59;32.90;;;11.13;;
59486;SDS011;45298;54.918;73.504;2022-12-07T07:02:29;41.72;;;11.20;;
59486;SDS011;45298;54.918;73.504;2022-12-07T07:04:59;37.05;;;9.35;;
59486;SDS011;45298;54.918;73.504;2022-12-07T07:07:28;28.17;;;8.98;;
59486;SDS011;45298;54.918;73.504;2022-12-07T07:09:57;32.45;;;9.32;;
59486;SDS011;45298;54.918;73.504;2022-12-07T07:12:26;48.50;;;9.85;;
59486;SDS011;45298;54.918;73.504;2022-12-07T07:14:55;41.65;;;11.15;;
59486;SDS011;45298;54.918;73.504;2022-12-07T07:17:24;56.53;;;16.52;;
59486;SDS011;45298;54.918;73.504;2022-12-07T07:19:53;36.65;;;10.48;;
59486;SDS011;45298;54.918;73.504;2022-12-07T07:22:22;34.08;;;9.05;;
59486;SDS011;45298;54.918;73.504;2022-12-07T07:24:51;28.00;;;8.68;;
59486;SDS011;45298;54.918;73.504;2022-12-07T07:27:19;35.97;;;9.18;;
59486;SDS011;45298;54.918;73.504;2022-12-07T07:29:48;37.53;;;8.93;;
59486;SDS011;45298;54.918;73.504;2022-12-07T07:32:17;35.88;;;8.30;;
59486;SDS011;45298;54.918;73.504;2022-12-07T07:34:46;33.70;;;8.95;;
59486;SDS011;45298;54.918;73.504;2022-12-07T07:37:17;28.67;;;8.32;;
59486;SDS011;45298;54.918;73.504;2022-12-07T07:39:48;28.23;;;7.78;;
59486;SDS011;45298;54.918;73.504;2022-12-07T07:42:17;25.45;;;7.97;;
59486;SDS011;45298;54.918;73.504;2022-12-07T07:44:46;21.75;;;6.03;;
59486;SDS011;45298;54.918;73.504;2022-12-07T07:47:15;26.40;;;6.93;;
59486;SDS011;45298;54.918;73.504;2022-12-07T07:49:44;28.75;;;8.13;;
59486;SDS011;45298;54.918;73.504;2022-12-07T07:52:14;33.95;;;7.95;;
59486;SDS011;45298;54.918;73.504;2022-12-07T07:54:43;31.20;;;9.25;;
59486;SDS011;45298;54.918;73.504;2022-12-07T07:57:11;23.10;;;6.93;;
59486;SDS011;45298;54.918;73.504;2022-12-07T07:59:40;32.83;;;8.20;;
59486;SDS011;45298;54.918;73.504;2022-12-07T08:02:12;25.58;;;7.72;;
59486;SDS011;45298;54.918;73.504;2022-12-07T08:04:43;30.95;;;7.30;;
59486;SDS011;45298;54.918;73.504;2022-12-07T08:07:13;28.13;;;7.40;;
59486;SDS011;45298;54.918;73.504;2022-12-07T08:09:43;26.23;;;6.85;;
59486;SDS011;45298;54.918;73.504;2022-12-07T08:12:11;23.35;;;6.75;;
59486;SDS011;45298;54.918;73.504;2022-12-07T08:14:40;23.40;;;7.50;;
59486;SDS011;45298;54.918;73.504;2022-12-07T08:17:09;22.33;;;7.30;;
59486;SDS011;45298;54.918;73.504;2022-12-07T08:19:38;15.70;;;5.00;;
59486;SDS011;45298;54.918;73.504;2022-12-07T08:22:07;20.77;;;6.82;;
59486;SDS011;45298;54.918;73.504;2022-12-07T08:24:36;32.28;;;8.40;;
59486;SDS011;45298;54.918;73.504;2022-12-07T08:27:05;25.52;;;7.05;;
59486;SDS011;45298;54.918;73.504;2022-12-07T08:29:36;19.60;;;5.88;;
59486;SDS011;45298;54.918;73.504;2022-12-07T08:32:05;19.35;;;6.82;;
59486;SDS011;45298;54.918;73.504;2022-12-07T08:34:38;23.53;;;6.47;;
59486;SDS011;45298;54.918;73.504;2022-12-07T08:37:07;27.27;;;6.55;;
59486;SDS011;45298;54.918;73.504;2022-12-07T08:39:36;22.90;;;5.88;;
59486;SDS011;45298;54.918;73.504;2022-12-07T08:42:05;16.33;;;6.30;;
59486;SDS011;45298;54.918;73.504;2022-12-07T08:44:33;20.95;;;6.93;;
59486;SDS011;45298;54.918;73.504;2022-12-07T08:47:02;25.55;;;6.70;;
59486;SDS011;45298;54.918;73.504;2022-12-07T08:49:39;19.85;;;6.15;;
59486;SDS011;45298;54.918;73.504;2022-12-07T08:52:11;20.88;;;6.38;;
59486;SDS011;45298;54.918;73.504;2022-12-07T08:54:41;17.45;;;6.25;;
59486;SDS011;45298;54.918;73.504;2022-12-07T08:57:12;18.02;;;5.05;;
59486;SDS011;45298;54.918;73.504;2022-12-07T08:59:41;14.88;;;4.07;;
59486;SDS011;45298;54.918;73.504;2022-12-07T09:02:10;21.35;;;6.38;;
59486;SDS011;45298;54.918;73.504;2022-12-07T09:04:39;19.05;;;5.70;;
59486;SDS011;45298;54.918;73.504;2022-12-07T09:07:08;16.75;;;5.55;;
59486;SDS011;45298;54.918;73.504;2022-12-07T09:09:37;14.60;;;5.70;;
59486;SDS011;45298;54.918;73.504;2022-12-07T09:12:06;16.10;;;6.25;;
59486;SDS011;45298;54.918;73.504;2022-12-07T09:14:35;17.55;;;6.00;;
59486;SDS011;45298;54.918;73.504;2022-12-07T09:17:05;22.45;;;6.65;;
59486;SDS011;45298;54.918;73.504;2022-12-07T09:19:35;17.65;;;4.88;;
59486;SDS011;45298;54.918;73.504;2022-12-07T09:22:05;22.13;;;6.20;;
59486;SDS011;45298;54.918;73.504;2022-12-07T09:24:34;16.45;;;5.55;;
59486;SDS011;45298;54.918;73.504;2022-12-07T09:27:03;17.35;;;6.03;;
59486;SDS011;45298;54.918;73.504;2022-12-07T09:29:32;25.50;;;6.40;;
59486;SDS011;45298;54.918;73.504;2022-12-07T09:32:00;31.83;;;6.95;;
59486;SDS011;45298;54.918;73.504;2022-12-07T09:34:37;23.50;;;7.20;;
59486;SDS011;45298;54.918;73.504;2022-12-07T09:37:06;25.02;;;7.15;;
59486;SDS011;45298;54.918;73.504;2022-12-07T09:39:39;21.05;;;6.50;;
59486;SDS011;45298;54.918;73.504;2022-12-07T09:42:23;22.35;;;7.00;;
59486;SDS011;45298;54.918;73.504;2022-12-07T09:44:56;23.88;;;7.20;;
59486;SDS011;45298;54.918;73.504;2022-12-07T09:47:27;24.15;;;6.68;;
59486;SDS011;45298;54.918;73.504;2022-12-07T09:50:00;20.50;;;6.20;;
59486;SDS011;45298;54.918;73.504;2022-12-07T09:52:34;20.88;;;6.07;;
59486;SDS011;45298;54.918;73.504;2022-12-07T09:55:25;23.45;;;6.00;;
59486;SDS011;45298;54.918;73.504;2022-12-07T09:57:56;17.42;;;5.97;;
59486;SDS011;45298;54.918;73.504;2022-12-07T10:00:26;24.42;;;6.35;;
59486;SDS011;45298;54.918;73.504;2022-12-07T10:02:57;18.67;;;7.05;;
59486;SDS011;45298;54.918;73.504;2022-12-07T10:05:28;22.65;;;7.13;;
59486;SDS011;45298;54.918;73.504;2022-12-07T10:08:02;29.02;;;7.22;;
59486;SDS011;45298;54.918;73.504;2022-12-07T10:10:32;25.17;;;6.47;;
59486;SDS011;45298;54.918;73.504;2022-12-07T10:13:10;21.83;;;7.15;;
59486;SDS011;45298;54.918;73.504;2022-12-07T10:18:19;16.98;;;6.03;;
59486;SDS011;45298;54.918;73.504;2022-12-07T10:20:59;18.33;;;6.65;;
59486;SDS011;45298;54.918;73.504;2022-12-07T10:23:31;33.03;;;7.90;;
59486;SDS011;45298;54.918;73.504;2022-12-07T10:26:18;24.75;;;7.20;;
59486;SDS011;45298;54.918;73.504;2022-12-07T10:31:43;30.80;;;8.25;;
59486;SDS011;45298;54.918;73.504;2022-12-07T10:37:28;23.55;;;6.20;;
59486;SDS011;45298;54.918;73.504;2022-12-07T10:39:57;23.65;;;6.20;;
59486;SDS011;45298;54.918;73.504;2022-12-07T10:42:27;15.32;;;5.18;;
59486;SDS011;45298;54.918;73.504;2022-12-07T10:47:59;16.65;;;6.05;;
59486;SDS011;45298;54.918;73.504;2022-12-07T11:21:27;19.88;;;5.15;;
59486;SDS011;45298;54.918;73.504;2022-12-07T11:26:56;22.73;;;7.18;;
59486;SDS011;45298;54.918;73.504;2022-12-07T11:37:39;22.52;;;6.53;;
59486;SDS011;45298;54.918;73.504;2022-12-07T11:46:08;17.52;;;6.25;;
59486;SDS011;45298;54.918;73.504;2022-12-07T11:48:44;24.95;;;6.30;;
59486;SDS011;45298;54.918;73.504;2022-12-07T11:51:14;20.42;;;6.63;;
59486;SDS011;45298;54.918;73.504;2022-12-07T11:53:52;32.25;;;10.35;;
59486;SDS011;45298;54.918;73.504;2022-12-07T11:56:26;28.73;;;7.80;;
59486;SDS011;45298;54.918;73.504;2022-12-07T12:01:44;32.65;;;8.10;;
59486;SDS011;45298;54.918;73.504;2022-12-07T12:07:30;19.73;;;6.55;;
59486;SDS011;45298;54.918;73.504;2022-12-07T12:10:25;31.05;;;6.95;;
59486;SDS011;45298;54.918;73.504;2022-12-07T12:13:35;32.50;;;7.95;;
59486;SDS011;45298;54.918;73.504;2022-12-07T12:22:10;16.55;;;5.68;;
59486;SDS011;45298;54.918;73.504;2022-12-07T12:27:24;27.13;;;5.93;;
59486;SDS011;45298;54.918;73.504;2022-12-07T12:29:59;20.35;;;6.32;;
59486;SDS011;45298;54.918;73.504;2022-12-07T12:35:22;17.58;;;5.80;;
59486;SDS011;45298;54.918;73.504;2022-12-07T12:41:03;24.73;;;6.88;;
59486;SDS011;45298;54.918;73.504;2022-12-07T12:55:01;23.67;;;6.57;;
59486;SDS011;45298;54.918;73.504;2022-12-07T12:57:31;27.38;;;7.80;;
59486;SDS011;45298;54.918;73.504;2022-12-07T13:00:01;21.85;;;7.32;;
59486;SDS011;45298;54.918;73.504;2022-12-07T13:02:50;26.70;;;7.28;;
59486;SDS011;45298;54.918;73.504;2022-12-07T13:05:30;18.98;;;6.45;;
59486;SDS011;45298;54.918;73.504;2022-12-07T13:08:00;22.98;;;6.88;;
59486;SDS011;45298;54.918;73.504;2022-12-07T13:10:50;24.30;;;7.60;;
59486;SDS011;45298;54.918;73.504;2022-12-07T13:15:52;22.48;;;6.78;;
59486;SDS011;45298;54.918;73.504;2022-12-07T13:26:20;30.02;;;8.10;;
59486;SDS011;45298;54.918;73.504;2022-12-07T13:31:45;27.70;;;8.15;;
59486;SDS011;45298;54.918;73.504;2022-12-07T13:34:34;38.80;;;9.70;;
59486;SDS011;45298;54.918;73.504;2022-12-07T13:39:48;33.90;;;7.80;;
59486;SDS011;45298;54.918;73.504;2022-12-07T13:42:21;24.83;;;7.85;;
59486;SDS011;45298;54.918;73.504;2022-12-07T13:44:57;21.85;;;8.00;;
59486;SDS011;45298;54.918;73.504;2022-12-07T13:48:10;22.00;;;7.32;;
59486;SDS011;45298;54.918;73.504;2022-12-07T13:52:59;20.55;;;7.07;;
59486;SDS011;45298;54.918;73.504;2022-12-07T13:55:29;24.23;;;7.47;;
59486;SDS011;45298;54.918;73.504;2022-12-07T13:57:58;29.08;;;8.40;;
59486;SDS011;45298;54.918;73.504;2022-12-07T14:00:28;22.38;;;6.93;;
59486;SDS011;45298;54.918;73.504;2022-12-07T14:03:02;20.48;;;6.80;;
59486;SDS011;45298;54.918;73.504;2022-12-07T14:06:02;24.88;;;6.13;;
59486;SDS011;45298;54.918;73.504;2022-12-07T14:08:33;26.75;;;6.13;;
59486;SDS011;45298;54.918;73.504;2022-12-07T14:11:02;31.33;;;7.60;;
59486;SDS011;45298;54.918;73.504;2022-12-07T14:13:32;37.88;;;8.60;;
59486;SDS011;45298;54.918;73.504;2022-12-07T14:16:04;29.02;;;7.60;;
59486;SDS011;45298;54.918;73.504;2022-12-07T14:18:49;33.60;;;7.93;;
59486;SDS011;45298;54.918;73.504;2022-12-07T14:21:19;37.38;;;8.05;;
59486;SDS011;45298;54.918;73.504;2022-12-07T14:24:02;27.23;;;6.57;;
59486;SDS011;45298;54.918;73.504;2022-12-07T14:26:32;27.63;;;6.80;;
59486;SDS011;45298;54.918;73.504;2022-12-07T14:31:54;30.85;;;7.95;;
59486;SDS011;45298;54.918;73.504;2022-12-07T14:34:24;24.73;;;7.13;;
59486;SDS011;45298;54.918;73.504;2022-12-07T14:36:53;54.95;;;11.88;;
59486;SDS011;45298;54.918;73.504;2022-12-07T14:39:22;37.35;;;9.95;;
59486;SDS011;45298;54.918;73.504;2022-12-07T14:41:50;31.13;;;8.57;;
59486;SDS011;45298;54.918;73.504;2022-12-07T14:44:20;36.17;;;8.55;;
59486;SDS011;45298;54.918;73.504;2022-12-07T14:46:54;34.45;;;8.13;;
59486;SDS011;45298;54.918;73.504;2022-12-07T14:49:43;24.20;;;7.85;;
59486;SDS011;45298;54.918;73.504;2022-12-07T14:52:30;27.27;;;7.75;;
59486;SDS011;45298;54.918;73.504;2022-12-07T14:55:23;29.27;;;7.60;;
59486;SDS011;45298;54.918;73.504;2022-12-07T14:57:55;27.02;;;6.15;;
59486;SDS011;45298;54.918;73.504;2022-12-07T15:00:26;42.63;;;10.15;;
59486;SDS011;45298;54.918;73.504;2022-12-07T15:02:56;32.90;;;7.95;;
59486;SDS011;45298;54.918;73.504;2022-12-07T15:05:25;28.23;;;8.43;;
59486;SDS011;45298;54.918;73.504;2022-12-07T15:07:54;28.00;;;7.80;;
59486;SDS011;45298;54.918;73.504;2022-12-07T15:10:25;27.90;;;8.00;;
59486;SDS011;45298;54.918;73.504;2022-12-07T15:12:59;27.67;;;8.95;;
59486;SDS011;45298;54.918;73.504;2022-12-07T15:15:48;31.08;;;7.07;;
59486;SDS011;45298;54.918;73.504;2022-12-07T15:18:18;38.45;;;11.50;;
59486;SDS011;45298;54.918;73.504;2022-12-07T15:20:49;28.23;;;8.13;;
59486;SDS011;45298;54.918;73.504;2022-12-07T15:23:19;24.30;;;7.72;;
59486;SDS011;45298;54.918;73.504;2022-12-07T15:25:49;30.48;;;7.25;;
59486;SDS011;45298;54.918;73.504;2022-12-07T15:28:17;29.25;;;9.65;;
59486;SDS011;45298;54.918;73.504;2022-12-07T15:30:46;27.48;;;8.95;;
59486;SDS011;45298;54.918;73.504;2022-12-07T15:33:15;31.30;;;9.18;;
59486;SDS011;45298;54.918;73.504;2022-12-07T15:35:45;33.45;;;9.65;;
59486;SDS011;45298;54.918;73.504;2022-12-07T15:38:17;46.45;;;12.63;;
59486;SDS011;45298;54.918;73.504;2022-12-07T15:41:06;35.35;;;11.27;;
59486;SDS011;45298;54.918;73.504;2022-12-07T15:43:35;36.67;;;10.05;;
59486;SDS011;45298;54.918;73.504;2022-12-07T15:46:22;22.33;;;7.18;;
59486;SDS011;45298;54.918;73.504;2022-12-07T15:48:52;24.42;;;7.05;;
59486;SDS011;45298;54.918;73.504;2022-12-07T15:51:21;28.67;;;8.60;;
59486;SDS011;45298;54.918;73.504;2022-12-07T15:53:51;34.22;;;9.85;;
59486;SDS011;45298;54.918;73.504;2022-12-07T15:56:20;30.42;;;6.90;;
59486;SDS011;45298;54.918;73.504;2022-12-07T15:58:49;25.17;;;8.27;;
59486;SDS011;45298;54.918;73.504;2022-12-07T16:01:18;45.90;;;13.88;;
59486;SDS011;45298;54.918;73.504;2022-12-07T16:03:48;23.25;;;7.15;;
59486;SDS011;45298;54.918;73.504;2022-12-07T16:06:17;30.50;;;8.77;;
59486;SDS011;45298;54.918;73.504;2022-12-07T16:08:46;29.52;;;7.10;;
59486;SDS011;45298;54.918;73.504;2022-12-07T16:11:15;37.05;;;9.57;;
59486;SDS011;45298;54.918;73.504;2022-12-07T16:13:44;34.17;;;10.63;;
59486;SDS011;45298;54.918;73.504;2022-12-07T16:16:14;38.80;;;11.55;;
59486;SDS011;45298;54.918;73.504;2022-12-07T16:18:44;42.53;;;12.85;;
59486;SDS011;45298;54.918;73.504;2022-12-07T16:21:15;41.15;;;12.93;;
59486;SDS011;45298;54.918;73.504;2022-12-07T16:23:51;58.63;;;14.15;;
59486;SDS011;45298;54.918;73.504;2022-12-07T16:26:21;60.10;;;15.43;;
59486;SDS011;45298;54.918;73.504;2022-12-07T16:28:50;57.75;;;15.13;;
59486;SDS011;45298;54.918;73.504;2022-12-07T16:31:22;61.42;;;17.38;;
59486;SDS011;45298;54.918;73.504;2022-12-07T16:33:53;54.97;;;16.35;;
59486;SDS011;45298;54.918;73.504;2022-12-07T16:36:24;73.18;;;18.02;;
59486;SDS011;45298;54.918;73.504;2022-12-07T16:39:15;65.82;;;17.17;;
59486;SDS011;45298;54.918;73.504;2022-12-07T16:41:46;82.07;;;16.83;;
59486;SDS011;45298;54.918;73.504;2022-12-07T16:44:16;61.80;;;18.08;;
59486;SDS011;45298;54.918;73.504;2022-12-07T16:46:45;56.40;;;15.98;;
59486;SDS011;45298;54.918;73.504;2022-12-07T16:49:14;59.25;;;15.18;;
59486;SDS011;45298;54.918;73.504;2022-12-07T16:51:44;45.80;;;13.73;;
59486;SDS011;45298;54.918;73.504;2022-12-07T16:54:24;64.72;;;17.40;;
59486;SDS011;45298;54.918;73.504;2022-12-07T16:56:53;40.80;;;13.10;;
59486;SDS011;45298;54.918;73.504;2022-12-07T16:59:22;34.25;;;11.60;;
59486;SDS011;45298;54.918;73.504;2022-12-07T17:01:51;43.38;;;10.85;;
59486;SDS011;45298;54.918;73.504;2022-12-07T17:04:20;36.03;;;11.18;;
59486;SDS011;45298;54.918;73.504;2022-12-07T17:06:49;48.15;;;14.10;;
59486;SDS011;45298;54.918;73.504;2022-12-07T17:09:18;49.15;;;14.27;;
59486;SDS011;45298;54.918;73.504;2022-12-07T17:11:48;51.22;;;13.43;;